Data for 01/24/2009

Time Sea-Level Adjusted Pressure Absolute Pressure Temperature Relative Humidity Dew Point   
(mb) (inHg) (mb) (inHg) (C) (F) (%) (C) (F)
00:05 1022 30.18 851 25.13 -15.3 4.5 79 -18.1 -0.6
00:10 1022 30.18 851 25.13 -15.2 4.6 80 -18 -0.3
00:15 1022 30.18 851 25.13 -15.2 4.7 78 -18.1 -0.6
00:20 1022 30.18 851 25.13 -15.3 4.4 80 -18 -0.5
00:25 1022 30.18 851 25.13 -15.3 4.4 80 -18 -0.4
00:30 1022 30.18 851 25.13 -15.3 4.5 82 -17.8 0
00:35 1022 30.18 851 25.13 -15.2 4.6 82 -17.6 0.3
00:40 1022 30.18 851 25.13 -15.2 4.7 82 -17.6 0.3
00:45 1022 30.18 851 25.13 -15.3 4.5 81 -17.9 -0.1
00:50 1022 30.18 851 25.13 -15.5 4.1 81 -18 -0.4
00:55 1022 30.18 851 25.13 -15.6 4 82 -18 -0.5
01:00 1021 30.15 851 25.13 -15.5 4.1 81 -18 -0.5
01:05 1021 30.15 851 25.13 -15.5 4.1 81 -18 -0.4
01:10 1021 30.15 851 25.13 -15.5 4.2 82 -17.9 -0.3
01:15 1021 30.15 850 25.1 -15.3 4.5 81 -17.9 -0.2
01:20 1021 30.15 850 25.1 -15.2 4.6 81 -17.8 -0.1
01:25 1021 30.15 850 25.1 -15.2 4.6 81 -17.8 -0.1
01:30 1021 30.15 850 25.1 -15.3 4.5 81 -17.8 -0
01:35 1021 30.15 850 25.1 -15.3 4.5 81 -17.9 -0.2
01:40 1021 30.15 850 25.1 -15.4 4.3 82 -17.9 -0.2
01:45 1021 30.15 850 25.1 -15.4 4.3 81 -17.9 -0.2
01:50 1021 30.15 850 25.1 -15.4 4.2 82 -17.8 -0.1
01:55 1021 30.15 850 25.1 -15.5 4.2 81 -18 -0.4
02:00 1021 30.15 850 25.1 -15.5 4 81 -18.1 -0.5
02:05 1021 30.15 850 25.1 -15.6 3.8 82 -18 -0.5
02:10 1021 30.15 850 25.1 -15.6 3.9 82 -18 -0.4
02:15 1021 30.15 850 25.1 -15.5 4.1 82 -17.9 -0.2
02:20 1021 30.15 850 25.1 -15.5 4.2 82 -17.9 -0.2
02:25 1020 30.12 850 25.1 -15.5 4.1 83 -17.8 -0.1
02:30 1020 30.12 850 25.1 -15.6 4 83 -17.8 -0.1
02:35 1020 30.12 850 25.1 -15.6 4 85 -17.6 0.3
02:40 1020 30.12 850 25.1 -15.6 3.8 85 -17.6 0.4
02:45 1021 30.15 850 25.1 -15.5 4.1 84 -17.6 0.4
02:50 1020 30.12 850 25.1 -15.5 4.1 85 -17.5 0.6
02:55 1020 30.12 850 25.1 -15.4 4.2 86 -17.2 1
03:00 1020 30.12 849 25.07 -15.3 4.5 87 -17.1 1.3
03:05 1020 30.12 849 25.07 -15.2 4.6 87 -16.9 1.5
03:10 1020 30.12 849 25.07 -15.1 4.8 88 -16.7 2
03:15 1020 30.12 849 25.07 -15.3 4.5 89 -16.8 1.8
03:20 1020 30.12 849 25.07 -15.4 4.2 86 -17.3 0.8
03:25 1020 30.12 849 25.07 -15.7 3.8 84 -17.8 -0.1
03:30 1020 30.12 849 25.07 -15.9 3.3 86 -17.7 0.1
03:35 1020 30.12 849 25.07 -16.1 3.1 87 -17.7 0.1
03:40 1020 30.12 849 25.07 -16.1 3.1 89 -17.5 0.5
03:45 1020 30.12 849 25.07 -16 3.3 90 -17.3 0.9
03:50 1020 30.12 849 25.07 -15.7 3.7 90 -17 1.4
03:55 1020 30.12 849 25.07 -15.7 3.8 92 -16.7 2
04:00 1020 30.12 849 25.07 -15.5 4 90 -16.8 1.8
04:05 1020 30.12 849 25.07 -15.7 3.7 88 -17.2 1
04:10 1020 30.12 849 25.07 -15.9 3.5 89 -17.3 0.9
04:15 1019 30.09 849 25.07 -15.8 3.6 89 -17.2 1.1
04:20 1019 30.09 849 25.07 -15.7 3.7 89 -17.2 1.1
04:25 1019 30.09 849 25.07 -15.7 3.8 89 -17.1 1.3
04:30 1019 30.09 849 25.07 -15.5 4.1 90 -16.8 1.8
04:35 1019 30.09 849 25.07 -15.4 4.2 90 -16.7 2
04:40 1019 30.09 849 25.07 -15.3 4.5 90 -16.5 2.2
04:45 1019 30.09 848 25.04 -15.1 4.8 90 -16.4 2.5
04:50 1019 30.09 848 25.04 -15.1 4.8 89 -16.6 2.2
04:55 1019 30.09 848 25.04 -15.2 4.7 84 -17.3 0.9
05:00 1019 30.09 848 25.04 -15.3 4.4 83 -17.6 0.4
05:05 1019 30.09 848 25.04 -15.3 4.5 83 -17.6 0.3
05:10 1019 30.09 848 25.04 -15.3 4.4 81 -17.9 -0.2
05:15 1019 30.09 848 25.04 -15.4 4.4 81 -17.9 -0.3
05:20 1019 30.09 848 25.04 -15.3 4.4 81 -17.9 -0.2
05:25 1019 30.09 848 25.04 -15.4 4.3 80 -18 -0.5
05:30 1019 30.09 848 25.04 -15.5 4.1 81 -18.1 -0.5
05:35 1019 30.09 848 25.04 -15.4 4.2 81 -18 -0.4
05:40 1019 30.09 848 25.04 -15.3 4.6 81 -17.8 -0.1
05:45 1019 30.09 848 25.04 -15.1 4.9 81 -17.6 0.3
05:50 1019 30.09 848 25.04 -15 4.9 81 -17.5 0.4
05:55 1019 30.09 848 25.04 -15 4.9 81 -17.6 0.4
06:00 1019 30.09 848 25.04 -15 5 80 -17.7 0.1
06:05 1019 30.09 848 25.04 -15.1 4.8 81 -17.8 0
06:10 1019 30.09 848 25.04 -15.1 4.8 80 -17.8 -0.1
06:15 1019 30.09 848 25.04 -15 4.9 80 -17.7 0.1
06:20 1019 30.09 848 25.04 -15 5.1 81 -17.6 0.4
06:25 1019 30.09 848 25.04 -14.9 5.2 81 -17.5 0.6
06:30 1019 30.09 848 25.04 -14.8 5.5 81 -17.4 0.7
06:35 1019 30.09 848 25.04 -14.7 5.5 81 -17.3 0.9
06:40 1019 30.09 848 25.04 -14.8 5.4 81 -17.3 0.8
06:45 1018 30.06 848 25.04 -14.8 5.4 81 -17.3 0.8
06:50 1019 30.09 848 25.04 -14.7 5.5 80 -17.5 0.6
06:55 1019 30.09 848 25.04 -14.7 5.5 80 -17.4 0.7
07:00 1019 30.09 848 25.04 -14.7 5.5 80 -17.5 0.5
07:05 1019 30.09 848 25.04 -14.7 5.6 81 -17.3 0.9
07:10 1019 30.09 848 25.04 -14.5 5.9 81 -17.2 1.1
07:15 1019 30.09 848 25.04 -14.4 6 81 -17.1 1.3
07:20 1018 30.06 848 25.04 -14.4 6.1 81 -17 1.4
07:25 1019 30.09 848 25.04 -14.4 6 81 -17.1 1.3
07:30 1019 30.09 848 25.04 -14.5 6 82 -16.9 1.5
07:35 1019 30.09 848 25.04 -14.4 6.2 81 -16.9 1.6
07:40 1019 30.09 848 25.04 -14.3 6.3 81 -16.8 1.7
07:45 1018 30.06 848 25.04 -14.3 6.3 81 -16.9 1.6
07:50 1018 30.06 848 25.04 -14.2 6.4 80 -16.9 1.5
07:55 1018 30.06 848 25.04 -14.3 6.3 80 -17 1.3
08:00 1018 30.06 848 25.04 -14.3 6.3 79 -17.1 1.2
08:05 1019 30.09 848 25.04 -14.3 6.4 80 -17.1 1.3
08:10 1019 30.09 848 25.04 -14.2 6.4 79 -17 1.4
08:15 1019 30.09 848 25.04 -14.2 6.5 80 -16.9 1.6
08:20 1019 30.09 848 25.04 -14.1 6.6 77 -17.4 0.7
08:25 1019 30.09 848 25.04 -14.4 6.1 77 -17.6 0.3
08:30 1019 30.09 848 25.04 -14.5 5.9 76 -17.8 -0.1
08:35 1019 30.09 848 25.04 -14.7 5.6 75 -18.1 -0.6
08:40 1019 30.09 848 25.04 -14.8 5.3 76 -18.1 -0.6
08:45 1019 30.09 848 25.04 -14.8 5.4 76 -18.1 -0.6
08:50 1019 30.09 848 25.04 -14.8 5.3 75 -18.3 -0.9
08:55 1019 30.09 848 25.04 -14.9 5.2 75 -18.4 -1.1
09:00 1019 30.09 848 25.04 -14.9 5.2 75 -18.4 -1.1
09:05 1019 30.09 848 25.04 -14.8 5.3 75 -18.4 -1.1
09:10 1019 30.09 848 25.04 -14.9 5.2 75 -18.4 -1.1
09:15 1019 30.09 848 25.04 -14.9 5.1 75 -18.5 -1.3
09:20 1019 30.09 848 25.04 -14.9 5.2 74 -18.6 -1.5
09:25 1019 30.09 848 25.04 -14.9 5.1 74 -18.6 -1.5
09:30 1019 30.09 848 25.04 -15 5.1 74 -18.6 -1.5
09:35 1019 30.09 848 25.04 -14.9 5.1 73 -18.8 -1.8
09:40 1019 30.09 848 25.04 -15.1 4.9 73 -18.8 -1.9
09:45 1019 30.09 848 25.04 -14.9 5.2 73 -18.7 -1.7
09:50 1019 30.09 848 25.04 -14.9 5.3 73 -18.7 -1.6
09:55 1019 30.09 848 25.04 -15 5.1 73 -18.8 -1.8
10:00 1019 30.09 848 25.04 -14.8 5.3 73 -18.7 -1.6
10:05 1019 30.09 848 25.04 -14.7 5.6 73 -18.6 -1.4
10:10 1019 30.09 848 25.04 -14.7 5.5 72 -18.6 -1.6
10:15 1019 30.09 848 25.04 -14.6 5.6 72 -18.7 -1.6
10:20 1019 30.09 848 25.04 -14.6 5.7 72 -18.6 -1.5
10:25 1019 30.09 848 25.04 -14.6 5.7 72 -18.6 -1.5
10:30 1019 30.09 848 25.04 -14.6 5.8 72 -18.6 -1.5
10:35 1019 30.09 848 25.04 -14.5 5.9 71 -18.8 -1.8
10:40 1019 30.09 848 25.04 -14.6 5.8 71 -18.6 -1.6
10:45 1019 30.09 848 25.04 -14.6 5.8 72 -18.6 -1.5
10:50 1019 30.09 848 25.04 -14.6 5.7 72 -18.7 -1.6
10:55 1019 30.09 848 25.04 -14.5 6 71 -18.7 -1.6
11:00 1019 30.09 848 25.04 -14.4 6 71 -18.7 -1.6
11:05 1019 30.09 848 25.04 -14.3 6.2 69 -18.7 -1.7
11:10 1019 30.09 848 25.04 -14.3 6.2 70 -18.6 -1.5
11:15 1019 30.09 848 25.04 -14.4 6.2 71 -18.6 -1.5
11:20 1019 30.09 848 25.04 -14.3 6.3 70 -18.6 -1.5
11:25 1019 30.09 848 25.04 -14.2 6.4 69 -18.7 -1.6
11:30 1019 30.09 848 25.04 -14.1 6.5 69 -18.6 -1.5
11:35 1019 30.09 848 25.04 -14.3 6.3 70 -18.7 -1.6
11:40 1019 30.09 848 25.04 -14.3 6.2 70 -18.6 -1.6
11:45 1019 30.09 848 25.04 -14.3 6.3 69 -18.7 -1.7
11:50 1019 30.09 848 25.04 -14.4 6.1 70 -18.7 -1.6
11:55 1019 30.09 848 25.04 -14.4 6.1 70 -18.7 -1.7
12:00 1019 30.09 848 25.04 -14.4 6.2 70 -18.8 -1.8
12:05 1019 30.09 848 25.04 -14.3 6.2 70 -18.7 -1.6
12:10 1019 30.09 848 25.04 -14.4 6.2 70 -18.6 -1.6
12:15 1018 30.06 848 25.04 -14.4 6.2 70 -18.7 -1.6
12:20 1018 30.06 847 25.01 -14.3 6.2 70 -18.7 -1.7
12:25 1018 30.06 847 25.01 -14.3 6.3 70 -18.7 -1.6
12:30 1018 30.06 847 25.01 -14.2 6.4 69 -18.7 -1.6
12:35 1018 30.06 847 25.01 -14 6.8 68 -18.6 -1.6
12:40 1018 30.06 847 25.01 -13.7 7.3 69 -18.3 -1
12:45 1018 30.06 847 25.01 -13.6 7.5 68 -18.3 -1
12:50 1018 30.06 847 25.01 -13.5 7.7 68 -18.2 -0.7
12:55 1018 30.06 847 25.01 -13.3 8 67 -18.1 -0.7
13:00 1018 30.06 847 25.01 -13 8.5 66 -18.1 -0.5
13:05 1018 30.06 847 25.01 -12.8 9 65 -18.1 -0.6
13:10 1018 30.06 847 25.01 -12.4 9.7 64 -17.8 -0
13:15 1018 30.06 847 25.01 -12 10.3 64 -17.6 0.3
13:20 1018 30.06 847 25.01 -12 10.5 64 -17.4 0.7
13:25 1018 30.06 847 25.01 -12 10.4 65 -17.3 0.8
13:30 1018 30.06 847 25.01 -12 10.4 65 -17.3 0.9
13:35 1018 30.06 847 25.01 -12 10.4 66 -17.2 1.1
13:40 1018 30.06 847 25.01 -11.8 10.8 65 -17.2 1.1
13:45 1018 30.06 847 25.01 -11.7 10.9 65 -17 1.4
13:50 1018 30.06 847 25.01 -11.8 10.8 66 -17 1.5
13:55 1018 30.06 847 25.01 -11.7 10.9 65 -17 1.4
14:00 1018 30.06 847 25.01 -11.9 10.7 66 -17 1.5
14:05 1018 30.06 847 25.01 -11.9 10.6 67 -16.8 1.7
14:10 1018 30.06 847 25.01 -11.8 10.8 66 -17 1.4
14:15 1017 30.03 847 25.01 -11.6 11 66 -16.8 1.8
14:20 1017 30.03 847 25.01 -11.8 10.7 67 -16.8 1.7
14:25 1017 30.03 847 25.01 -11.8 10.8 66 -16.8 1.7
14:30 1017 30.03 846 24.98 -11.8 10.7 68 -16.7 2
14:35 1017 30.03 846 24.98 -11.8 10.7 66 -17 1.4
14:40 1017 30.03 846 24.98 -11.6 11.2 65 -16.9 1.5
14:45 1017 30.03 846 24.98 -11.5 11.4 64 -17 1.4
14:50 1017 30.03 846 24.98 -11.7 11 65 -17 1.4
14:55 1017 30.03 846 24.98 -11.9 10.6 66 -17 1.4
15:00 1017 30.03 846 24.98 -12 10.3 66 -17.1 1.2
15:05 1017 30.03 846 24.98 -12.1 10.2 67 -17 1.4
15:10 1017 30.03 846 24.98 -12 10.3 66 -17.1 1.1
15:15 1017 30.03 846 24.98 -12.3 9.9 67 -17.2 1
15:20 1017 30.03 847 25.01 -12.3 9.8 67 -17.3 0.9
15:25 1017 30.03 847 25.01 -12.4 9.7 68 -17.1 1.3
15:30 1017 30.03 847 25.01 -12.2 10 69 -16.8 1.7
15:35 1017 30.03 847 25.01 -12.4 9.6 68 -17.2 1.1
15:40 1017 30.03 847 25.01 -12.6 9.3 68 -17.4 0.6
15:45 1017 30.03 847 25.01 -12.8 8.9 70 -17.3 0.9
15:50 1017 30.03 847 25.01 -12.9 8.7 69 -17.5 0.6
15:55 1017 30.03 847 25.01 -13.2 8.3 70 -17.5 0.4
16:00 1017 30.03 847 25.01 -13.4 7.9 71 -17.7 0.2
16:05 1017 30.03 847 25.01 -13.5 7.6 72 -17.5 0.4
16:10 1017 30.03 847 25.01 -13.5 7.6 72 -17.6 0.4
16:15 1017 30.03 846 24.98 -13.7 7.3 73 -17.6 0.3
16:20 1017 30.03 846 24.98 -13.8 7.1 73 -17.7 0.2
16:25 1017 30.03 847 25.01 -13.9 6.9 73 -17.7 0.1
16:30 1017 30.03 847 25.01 -14 6.8 73 -17.9 -0.2
16:35 1017 30.03 847 25.01 -14 6.7 73 -18 -0.3
16:40 1017 30.03 847 25.01 -14 6.7 73 -17.9 -0.1
16:45 1017 30.03 847 25.01 -14 6.7 73 -17.8 -0.1
16:50 1017 30.03 847 25.01 -14.1 6.6 75 -17.6 0.3
16:55 1017 30.03 847 25.01 -14.2 6.5 74 -17.8 -0.1
17:00 1017 30.03 846 24.98 -14.3 6.3 74 -18 -0.5
17:05 1017 30.03 847 25.01 -14.5 6 74 -18.2 -0.7
17:10 1017 30.03 846 24.98 -14.5 5.8 73 -18.3 -0.9
17:15 1017 30.03 846 24.98 -14.6 5.7 74 -18.3 -0.9
17:20 1017 30.03 846 24.98 -14.6 5.6 74 -18.3 -0.9
17:25 1017 30.03 846 24.98 -14.7 5.5 75 -18.3 -0.9
17:30 1017 30.03 846 24.98 -14.7 5.5 75 -18.2 -0.8
17:35 1017 30.03 846 24.98 -14.8 5.3 76 -18.1 -0.6
17:40 1017 30.03 846 24.98 -14.8 5.3 75 -18.3 -0.9
17:45 1017 30.03 846 24.98 -14.9 5.2 76 -18.2 -0.7
17:50 1017 30.03 846 24.98 -14.9 5.1 76 -18.2 -0.8
17:55 1017 30.03 846 24.98 -15.1 4.9 77 -18.2 -0.7
18:00 1017 30.03 846 24.98 -15.1 4.8 79 -18 -0.4
18:05 1017 30.03 846 24.98 -15.2 4.7 79 -18.1 -0.5
18:10 1017 30.03 846 24.98 -15.2 4.7 79 -18.1 -0.5
18:15 1017 30.03 846 24.98 -15.2 4.6 81 -17.8 -0.1
18:20 1017 30.03 846 24.98 -15.2 4.6 80 -17.9 -0.2
18:25 1017 30.03 847 25.01 -15.3 4.6 80 -18 -0.3
18:30 1017 30.03 846 24.98 -15.3 4.5 80 -18 -0.4
18:35 1017 30.03 846 24.98 -15.3 4.4 79 -18.1 -0.6
18:40 1017 30.03 846 24.98 -15.4 4.3 80 -18.1 -0.7
18:45 1017 30.03 846 24.98 -15.4 4.2 80 -18.2 -0.7
18:50 1017 30.03 846 24.98 -15.5 4.1 80 -18.2 -0.8
18:55 1017 30.03 846 24.98 -15.5 4.1 79 -18.3 -1
19:00 1017 30.03 846 24.98 -15.5 4.1 80 -18.2 -0.8
19:05 1017 30.03 846 24.98 -15.5 4.1 80 -18.2 -0.8
19:10 1017 30.03 846 24.98 -15.5 4.1 81 -18.1 -0.5
19:15 1017 30.03 846 24.98 -15.5 4 80 -18.3 -0.9
19:20 1017 30.03 846 24.98 -15.5 4.1 80 -18.2 -0.8
19:25 1017 30.03 846 24.98 -15.5 4.1 80 -18.3 -0.9
19:30 1017 30.03 846 24.98 -15.5 4.1 79 -18.3 -1
19:35 1017 30.03 846 24.98 -15.6 4 78 -18.5 -1.3
19:40 1017 30.03 846 24.98 -15.5 4 79 -18.4 -1.1
19:45 1017 30.03 846 24.98 -15.5 4 78 -18.6 -1.4
19:50 1017 30.03 846 24.98 -15.5 4 77 -18.7 -1.6
19:55 1017 30.03 846 24.98 -15.6 4 77 -18.7 -1.6
20:00 1017 30.03 846 24.98 -15.5 4 76 -18.8 -1.8
20:05 1017 30.03 846 24.98 -15.6 4 77 -18.7 -1.6
20:10 1017 30.03 846 24.98 -15.6 3.9 77 -18.7 -1.7
20:15 1017 30.03 846 24.98 -15.6 3.9 78 -18.7 -1.6
20:20 1017 30.03 846 24.98 -15.6 3.9 76 -18.9 -2
20:25 1017 30.03 846 24.98 -15.6 4 75 -19.1 -2.4
20:30 1017 30.03 846 24.98 -15.6 4 75 -19.1 -2.3
20:35 1017 30.03 846 24.98 -15.6 3.9 76 -19 -2.1
20:40 1017 30.03 846 24.98 -15.7 3.8 73 -19.4 -2.9
20:45 1017 30.03 846 24.98 -15.8 3.7 74 -19.4 -2.9
20:50 1017 30.03 846 24.98 -15.7 3.8 71 -19.8 -3.6
20:55 1017 30.03 846 24.98 -15.7 3.7 71 -19.8 -3.7
21:00 1017 30.03 846 24.98 -15.8 3.5 71 -19.9 -3.9
21:05 1017 30.03 846 24.98 -15.9 3.4 72 -19.9 -3.7
21:10 1017 30.03 846 24.98 -16 3.2 74 -19.7 -3.4
21:15 1017 30.03 846 24.98 -16 3.1 76 -19.4 -2.9
21:20 1017 30.03 846 24.98 -16.1 3.1 77 -19.2 -2.6
21:25 1017 30.03 846 24.98 -16.1 3 76 -19.4 -2.8
21:30 1017 30.03 846 24.98 -16.1 3 76 -19.4 -2.8
21:35 1017 30.03 846 24.98 -16.1 3 75 -19.6 -3.3
21:40 1017 30.03 846 24.98 -16.1 3 73 -19.9 -3.8
21:45 1017 30.03 846 24.98 -16.1 3 73 -19.9 -3.8
21:50 1017 30.03 846 24.98 -16.2 2.9 73 -19.9 -3.8
21:55 1017 30.03 846 24.98 -16.3 2.7 73 -20.1 -4.2
22:00 1017 30.03 846 24.98 -16.4 2.6 73 -20.1 -4.2
22:05 1017 30.03 846 24.98 -16.4 2.5 72 -20.3 -4.6
22:10 1017 30.03 846 24.98 -16.4 2.5 72 -20.3 -4.5
22:15 1017 30.03 846 24.98 -16.4 2.5 73 -20.2 -4.4
22:20 1017 30.03 846 24.98 -16.5 2.3 74 -20.2 -4.4
22:25 1017 30.03 846 24.98 -16.5 2.2 74 -20.2 -4.3
22:30 1017 30.03 846 24.98 -16.6 2.1 74 -20.2 -4.4
22:35 1017 30.03 846 24.98 -16.6 2 74 -20.2 -4.4
22:40 1017 30.03 846 24.98 -16.7 2 74 -20.2 -4.4
22:45 1017 30.03 846 24.98 -16.7 2 74 -20.3 -4.6
22:50 1017 30.03 846 24.98 -16.8 1.8 74 -20.3 -4.6
22:55 1017 30.03 846 24.98 -16.7 1.9 73 -20.5 -4.8
23:00 1017 30.03 846 24.98 -16.7 1.9 73 -20.6 -5
23:05 1017 30.03 846 24.98 -16.8 1.8 72 -20.7 -5.2
23:10 1017 30.03 846 24.98 -16.8 1.7 72 -20.7 -5.3
23:15 1017 30.03 846 24.98 -16.9 1.6 72 -20.8 -5.5
23:20 1017 30.03 846 24.98 -16.9 1.5 72 -20.9 -5.5
23:25 1017 30.03 846 24.98 -17 1.4 72 -20.9 -5.6
23:30 1017 30.03 846 24.98 -17.1 1.3 73 -20.9 -5.6
23:35 1017 30.03 846 24.98 -17.1 1.3 74 -20.7 -5.3
23:40 1017 30.03 846 24.98 -17.1 1.2 73 -20.8 -5.5
23:45 1017 30.03 846 24.98 -17.1 1.2 74 -20.8 -5.4
23:50 1017 30.03 846 24.98 -17.1 1.1 74 -20.7 -5.2
23:55 1017 30.03 846 24.98 -17.2 1.1 74 -20.8 -5.4
24:00 1017 30.03 846 24.98 -17.3 0.9 74 -20.8 -5.5